Time;durP1;ratioP1;P1;durP2;ratioP2;P2;SDS_P1;SDS_P2;PMS_P1;PMS_P2;Temp;Humidity;BMP_temperature;BMP_pressure;BME280_temperature;BME280_humidity;BME280_pressure;Samples;Min_cycle;Max_cycle;Signal;HPM_P1;HPM_P2
2023/05/31 00:01:39;;;;;;;6.93;2.55;;;;;;;16.77;34.17;97027.31;4860845;29;20240;-79
2023/05/31 00:04:07;;;;;;;3.42;1.42;;;;;;;16.75;34.07;97017.97;4860629;29;20049;-79
2023/05/31 00:06:36;;;;;;;3.10;1.75;;;;;;;16.69;34.30;97015.19;4860476;29;20141;-79
2023/05/31 00:09:05;;;;;;;2.38;1.17;;;;;;;16.67;34.59;97019.03;4860431;29;20061;-78
2023/05/31 00:11:32;;;;;;;3.75;1.75;;;;;;;16.66;34.62;97014.78;4860593;29;20064;-78
2023/05/31 00:14:00;;;;;;;2.67;1.35;;;;;;;16.65;34.52;97003.44;4860721;29;20477;-80
2023/05/31 00:16:27;;;;;;;2.10;1.77;;;;;;;16.62;34.62;97016.25;4860518;29;20553;-78
2023/05/31 00:19:15;;;;;;;3.55;1.67;;;;;;;16.58;34.83;97005.31;4860416;29;20428;-79
2023/05/31 00:21:44;;;;;;;3.30;1.23;;;;;;;16.56;34.87;97009.16;4860073;29;20052;-79
2023/05/31 00:24:13;;;;;;;4.18;1.40;;;;;;;16.57;35.00;97006.31;4858625;29;20077;-79
2023/05/31 00:26:41;;;;;;;3.22;1.60;;;;;;;16.59;34.94;97014.81;4858670;29;20057;-79
2023/05/31 00:29:09;;;;;;;4.25;2.03;;;;;;;16.58;34.92;97012.41;4858901;29;20057;-79
2023/05/31 00:31:36;;;;;;;2.58;1.20;;;;;;;16.53;35.09;97018.31;4858133;29;20140;-79
2023/05/31 00:34:04;;;;;;;4.43;1.27;;;;;;;16.47;35.00;97022.56;4858596;29;20148;-78
2023/05/31 00:36:33;;;;;;;3.03;1.45;;;;;;;16.44;35.18;97015.09;4858076;29;20084;-79
2023/05/31 00:39:00;;;;;;;5.20;1.50;;;;;;;16.42;35.27;97019.75;4858156;29;20057;-79
2023/05/31 00:41:29;;;;;;;4.30;1.52;;;;;;;16.39;35.35;97016.72;4858107;29;20105;-78
2023/05/31 00:43:57;;;;;;;3.60;1.65;;;;;;;16.33;35.37;97015.72;4859306;29;20132;-79
2023/05/31 00:46:27;;;;;;;3.47;1.50;;;;;;;16.30;35.55;97018.78;4859696;29;20117;-79
2023/05/31 00:48:56;;;;;;;4.72;1.42;;;;;;;16.26;35.60;97015.75;4859786;29;20053;-79
2023/05/31 00:51:25;;;;;;;5.90;1.70;;;;;;;16.25;35.64;97013.34;4859845;29;20049;-79
2023/05/31 00:53:53;;;;;;;4.57;1.30;;;;;;;16.24;35.54;97014.34;4859596;29;20136;-79
2023/05/31 00:56:22;;;;;;;2.95;1.73;;;;;;;16.21;35.80;97012.94;4860029;29;20609;-79
2023/05/31 00:58:52;;;;;;;4.15;1.83;;;;;;;16.19;35.88;97007.06;4860042;29;20061;-78
2023/05/31 01:01:21;;;;;;;4.25;1.88;;;;;;;16.17;35.86;97010.94;4860196;29;20430;-79
2023/05/31 01:03:49;;;;;;;6.80;1.52;;;;;;;16.14;35.97;96999.00;4859878;29;20052;-79
2023/05/31 01:06:17;;;;;;;4.07;1.75;;;;;;;16.13;35.95;97001.81;4859546;29;20532;-79
2023/05/31 01:08:45;;;;;;;2.47;1.30;;;;;;;16.09;36.20;96997.97;4859874;29;20446;-78
2023/05/31 01:11:18;;;;;;;3.30;1.65;;;;;;;16.08;36.24;97004.28;4859649;29;20053;-78
2023/05/31 01:13:58;;;;;;;4.07;1.75;;;;;;;16.04;36.34;96988.88;4859630;29;20046;-78
2023/05/31 01:16:32;;;;;;;4.47;1.10;;;;;;;16.02;36.32;96988.28;4859757;29;20061;-78
2023/05/31 01:19:06;;;;;;;2.17;1.40;;;;;;;16.02;36.51;96998.81;4859627;29;20058;-79
2023/05/31 01:21:51;;;;;;;7.32;1.67;;;;;;;16.02;36.38;96998.81;4860900;29;20196;-81
2023/05/31 01:24:26;;;;;;;1.23;1.00;;;;;;;16.02;36.60;96993.53;4860822;29;20572;-78
2023/05/31 01:26:58;;;;;;;2.05;1.35;;;;;;;16.02;36.31;96985.66;4859850;29;20053;-78
2023/05/31 01:29:27;;;;;;;2.95;1.35;;;;;;;16.00;36.39;96990.31;4859800;29;20053;-78
2023/05/31 01:31:58;;;;;;;2.83;1.42;;;;;;;15.96;36.54;96989.13;4859292;29;20511;-78
2023/05/31 01:34:26;;;;;;;1.88;1.17;;;;;;;15.96;36.33;96988.28;4859331;29;20522;-78
2023/05/31 01:36:53;;;;;;;6.15;1.77;;;;;;;15.98;36.49;96996.78;4859540;29;20060;-78
2023/05/31 01:39:21;;;;;;;3.90;1.17;;;;;;;15.97;36.48;96989.94;4859517;29;20080;-79
2023/05/31 01:41:52;;;;;;;5.32;2.10;;;;;;;15.95;36.75;96991.97;4859529;29;20404;-79
2023/05/31 01:44:21;;;;;;;2.67;1.42;;;;;;;15.94;36.48;96985.06;4859471;29;20109;-79
2023/05/31 01:46:49;;;;;;;3.10;1.15;;;;;;;15.96;36.63;96981.25;4859230;29;20114;-79
2023/05/31 01:49:17;;;;;;;4.25;1.30;;;;;;;15.96;36.33;96989.13;4859621;29;20057;-80
2023/05/31 01:51:46;;;;;;;4.22;1.35;;;;;;;15.95;36.66;96982.25;4859348;29;20133;-79
2023/05/31 01:54:14;;;;;;;4.93;1.52;;;;;;;15.93;36.52;96988.72;4859376;29;20520;-79
2023/05/31 01:56:43;;;;;;;2.75;1.70;;;;;;;15.91;36.61;96982.84;4859640;29;20058;-78
2023/05/31 01:59:12;;;;;;;3.88;1.30;;;;;;;15.88;36.72;96991.16;4860011;29;20053;-78
2023/05/31 02:01:41;;;;;;;2.40;1.48;;;;;;;15.87;36.73;96995.59;4860595;29;20478;-79
2023/05/31 02:04:09;;;;;;;2.53;1.40;;;;;;;15.85;36.58;96997.63;4862666;29;20084;-78
2023/05/31 02:06:37;;;;;;;2.22;1.60;;;;;;;15.84;36.69;96996.03;4862547;29;20049;-79
2023/05/31 02:09:06;;;;;;;3.90;1.73;;;;;;;15.84;36.89;97004.72;4863702;29;20058;-81
2023/05/31 02:11:34;;;;;;;2.45;1.15;;;;;;;15.85;36.89;97013.41;4864771;29;20050;-81
2023/05/31 02:14:02;;;;;;;6.78;1.63;;;;;;;15.82;36.73;97001.47;4864739;29;20825;-82
2023/05/31 02:16:29;;;;;;;2.47;1.40;;;;;;;15.79;37.00;97004.53;4864302;29;20093;-81
2023/05/31 02:18:58;;;;;;;3.50;1.35;;;;;;;15.77;37.09;97000.50;4864673;29;20053;-81
2023/05/31 02:21:26;;;;;;;2.33;1.52;;;;;;;15.77;37.18;97005.75;4864428;29;20061;-81
2023/05/31 02:23:54;;;;;;;2.58;1.40;;;;;;;15.78;37.20;97012.63;4862678;29;20113;-79
2023/05/31 02:26:23;;;;;;;4.10;1.27;;;;;;;15.75;37.05;97007.78;4861875;29;20328;-79
2023/05/31 02:28:51;;;;;;;3.92;1.58;;;;;;;15.75;37.10;97013.03;4862510;29;20056;-78
2023/05/31 02:31:19;;;;;;;3.65;1.50;;;;;;;15.75;37.20;97013.84;4862350;29;20057;-78
2023/05/31 02:33:47;;;;;;;2.08;1.50;;;;;;;15.77;37.26;97016.28;4862233;29;20422;-78
2023/05/31 02:36:16;;;;;;;2.78;1.50;;;;;;;15.78;37.36;97004.72;4863305;29;20065;-81
2023/05/31 02:38:45;;;;;;;4.70;1.38;;;;;;;15.79;37.36;97009.00;4864386;29;20141;-81
2023/05/31 02:41:12;;;;;;;3.55;2.13;;;;;;;15.81;37.35;97006.97;4863899;29;20057;-81
2023/05/31 02:43:40;;;;;;;2.80;1.40;;;;;;;15.82;37.36;97009.38;4863434;29;20129;-82
2023/05/31 02:46:08;;;;;;;2.70;1.35;;;;;;;15.84;37.41;97003.91;4863107;29;20054;-81
2023/05/31 02:48:35;;;;;;;3.17;1.38;;;;;;;15.86;37.38;97007.94;4863571;29;20053;-81
2023/05/31 02:51:03;;;;;;;2.25;1.40;;;;;;;15.86;37.52;97000.06;4864428;29;20058;-82
2023/05/31 02:53:32;;;;;;;4.72;1.60;;;;;;;15.86;37.66;97000.06;4872584;29;20050;-81
2023/05/31 02:56:00;;;;;;;6.05;1.38;;;;;;;15.81;37.68;96996.44;4872032;29;20041;-81
2023/05/31 02:58:27;;;;;;;2.28;1.45;;;;;;;15.81;37.80;96996.44;4870524;29;20061;-81
2023/05/31 03:00:55;;;;;;;2.25;1.10;;;;;;;15.78;37.46;96996.84;4865970;29;20065;-82
2023/05/31 03:03:22;;;;;;;3.95;1.65;;;;;;;15.74;37.70;97003.50;4865378;29;20185;-81
2023/05/31 03:05:50;;;;;;;3.85;1.40;;;;;;;15.72;38.28;97005.53;4865191;29;20089;-82
2023/05/31 03:08:18;;;;;;;2.17;1.70;;;;;;;15.73;38.27;97010.59;4865394;29;20053;-81
2023/05/31 03:10:47;;;;;;;3.10;1.48;;;;;;;15.75;38.12;97002.53;4863949;29;20085;-81
2023/05/31 03:13:14;;;;;;;1.75;1.38;;;;;;;15.73;38.54;97009.81;4863488;29;20058;-81
2023/05/31 03:15:42;;;;;;;3.95;1.60;;;;;;;15.76;39.05;97014.66;4865321;29;20507;-81
2023/05/31 04:59:07;;;;;;;61.80;37.17;;;;;;;15.80;40.82;97047.41;5476703;23;20261;-80
2023/05/31 05:01:35;;;;;;;6.75;2.85;;;;;;;15.83;40.63;97041.75;4845659;29;20081;-82
2023/05/31 06:02:06;;;;;;;4.57;1.85;;;;;;;16.01;39.96;97067.44;5633976;23;20055;-80
2023/05/31 06:04:34;;;;;;;3.70;1.73;;;;;;;16.05;40.47;97060.75;4828672;29;20055;-79
2023/05/31 06:07:01;;;;;;;5.18;2.15;;;;;;;16.10;40.57;97062.78;4828881;29;20050;-79
2023/05/31 06:09:29;;;;;;;4.30;2.40;;;;;;;16.16;40.60;97067.19;4825151;29;20093;-79
2023/05/31 06:11:57;;;;;;;5.53;1.58;;;;;;;16.25;40.62;97066.78;4826789;29;20102;-80
2023/05/31 06:14:25;;;;;;;6.15;1.83;;;;;;;16.33;40.32;97064.94;4826254;29;20599;-79
2023/05/31 06:16:53;;;;;;;3.63;1.90;;;;;;;16.40;40.13;97068.38;4825260;29;20079;-79
2023/05/31 06:19:22;;;;;;;5.88;1.90;;;;;;;16.50;40.36;97070.56;4825747;29;20054;-79
2023/05/31 06:21:51;;;;;;;3.13;1.60;;;;;;;16.56;40.36;97064.47;4825971;29;20089;-81
2023/05/31 06:24:19;;;;;;;6.00;1.83;;;;;;;16.63;39.56;97067.88;4826061;29;20042;-79
2023/05/31 06:26:47;;;;;;;4.78;1.77;;;;;;;16.69;40.39;97062.59;4826965;29;20061;-79
2023/05/31 06:29:16;;;;;;;6.18;1.95;;;;;;;16.75;39.95;97066.22;4826518;29;20058;-79
2023/05/31 10:05:05;;;;;;;4.70;1.60;;;;;;;22.38;30.28;96993.50;5120168;23;20141;-81
2023/05/31 10:07:37;;;;;;;4.80;1.27;;;;;;;22.42;30.83;96995.41;4858849;29;20511;-82
2023/05/31 10:10:07;;;;;;;6.43;1.98;;;;;;;22.47;29.95;96993.88;4854384;29;20079;-81
2023/05/31 10:12:40;;;;;;;6.55;1.70;;;;;;;22.49;29.78;96999.75;4855627;29;20053;-80
2023/05/31 10:15:13;;;;;;;9.02;1.70;;;;;;;22.53;30.33;96993.69;4842953;29;20133;-81
2023/05/31 10:17:46;;;;;;;1.65;1.38;;;;;;;22.56;29.40;96987.84;4838245;29;20050;-80
2023/05/31 10:20:17;;;;;;;3.97;1.58;;;;;;;22.61;29.55;96995.91;4827867;29;20111;-79
2023/05/31 10:22:49;;;;;;;3.90;1.60;;;;;;;22.70;29.60;96990.94;4848065;29;20050;-81
2023/05/31 10:25:28;;;;;;;7.97;2.38;;;;;;;22.76;29.91;96994.44;4844134;29;20586;-81
2023/05/31 10:28:01;;;;;;;4.97;2.15;;;;;;;22.80;29.20;96990.22;4846006;29;20054;-79
2023/05/31 10:30:32;;;;;;;4.53;1.70;;;;;;;22.80;28.89;96991.03;4844207;29;20136;-80
2023/05/31 10:33:04;;;;;;;5.53;2.00;;;;;;;22.83;29.06;96987.09;4844287;29;20507;-79
2023/05/31 10:35:33;;;;;;;;;;;;;;;22.87;29.29;96974.91;4845885;29;20427;-81
2023/05/31 10:46:10;;;;;;;3.65;1.42;;;;;;;22.94;28.18;96972.84;5321610;23;20042;-79
2023/05/31 10:48:47;;;;;;;2.97;1.77;;;;;;;22.98;27.88;96971.28;4842769;29;20069;-79
2023/05/31 10:51:18;;;;;;;3.20;1.48;;;;;;;23.00;27.52;96965.72;4844145;29;20518;-78
2023/05/31 10:53:46;;;;;;;2.25;1.70;;;;;;;23.01;28.04;96962.81;4843368;29;20742;-78
2023/05/31 10:56:18;;;;;;;5.43;1.42;;;;;;;23.08;28.41;96961.81;4846767;29;20042;-78
2023/05/31 10:58:49;;;;;;;6.05;1.58;;;;;;;23.15;26.68;96963.19;4844854;29;20065;-77
2023/05/31 11:01:20;;;;;;;7.15;1.73;;;;;;;23.17;26.48;96971.72;4840830;29;20077;-77
2023/05/31 11:03:51;;;;;;;3.33;1.58;;;;;;;23.16;26.43;96966.69;4843521;29;20049;-78
2023/05/31 11:06:24;;;;;;;2.20;1.45;;;;;;;23.16;26.38;96964.81;4844557;29;20049;-79
2023/05/31 11:08:59;;;;;;;2.55;1.63;;;;;;;23.18;27.12;96957.38;4844087;29;20123;-77
2023/05/31 11:11:46;;;;;;;3.58;1.40;;;;;;;23.24;26.71;96964.34;4844433;29;20054;-78
2023/05/31 11:14:29;;;;;;;3.85;1.45;;;;;;;23.30;27.26;96959.84;4826101;29;20058;-77
2023/05/31 11:17:15;;;;;;;2.90;1.38;;;;;;;23.36;26.56;96956.19;4840575;29;20061;-79
2023/05/31 11:19:44;;;;;;;3.20;1.50;;;;;;;23.41;26.55;96958.06;4842586;29;20511;-78
2023/05/31 11:22:15;;;;;;;5.07;1.42;;;;;;;23.44;25.00;96958.38;4848037;29;20059;-79
2023/05/31 11:24:51;;;;;;;4.07;1.67;;;;;;;23.47;24.98;96950.94;4862968;29;20081;-78
2023/05/31 11:27:20;;;;;;;5.93;1.60;;;;;;;23.50;25.09;96943.22;4860106;29;20578;-79
2023/05/31 11:29:58;;;;;;;4.15;1.50;;;;;;;23.57;25.17;96940.34;4859369;29;20062;-79
2023/05/31 11:33:08;;;;;;;3.88;1.50;;;;;;;23.67;26.66;96948.41;4843803;29;20465;-79
2023/05/31 11:35:36;;;;;;;2.60;1.17;;;;;;;23.72;24.74;96945.75;4836278;29;20050;-79
2023/05/31 11:38:06;;;;;;;2.35;1.30;;;;;;;23.71;24.28;96944.16;4832117;29;20054;-80
2023/05/31 11:40:36;;;;;;;5.85;1.10;;;;;;;23.71;24.40;96936.19;4839564;29;20065;-80
2023/05/31 11:43:06;;;;;;;3.33;1.45;;;;;;;23.70;24.64;96931.91;4842818;29;20054;-80
2023/05/31 11:45:40;;;;;;;;;;;;;;;23.71;24.91;96930.84;4842993;29;20045;-79
2023/05/31 11:48:18;;;;;;;7.63;1.65;;;;;;;23.71;24.64;96940.72;4842033;29;20003;-80
2023/05/31 11:50:45;;;;;;;7.07;1.70;;;;;;;23.70;24.58;96931.09;4839556;29;20114;-79
2023/05/31 11:53:14;;;;;;;7.10;2.10;;;;;;;23.76;25.32;96938.09;4841054;29;20487;-78
2023/05/31 11:55:47;;;;;;;4.00;1.60;;;;;;;23.81;25.28;96925.63;4842268;29;20512;-78
2023/05/31 11:58:15;;;;;;;3.17;1.27;;;;;;;23.85;24.95;96925.88;4842664;29;20050;-78
2023/05/31 12:00:46;;;;;;;5.03;1.55;;;;;;;23.84;24.56;96918.97;4842479;29;20046;-80
2023/05/31 12:03:20;;;;;;;3.60;1.35;;;;;;;23.80;24.66;96918.69;4842595;29;20426;-80
2023/05/31 12:05:52;;;;;;;7.53;1.42;;;;;;;23.80;25.44;96908.03;4842392;29;20053;-79
2023/05/31 12:08:21;;;;;;;6.32;1.50;;;;;;;23.85;25.57;96904.56;4831920;29;20471;-80
2023/05/31 12:10:48;;;;;;;4.65;1.88;;;;;;;23.89;25.12;96905.66;4825231;29;20057;-79
2023/05/31 12:13:17;;;;;;;3.90;2.15;;;;;;;23.95;24.86;96906.50;4825665;29;20061;-79
2023/05/31 12:15:53;;;;;;;4.55;1.50;;;;;;;24.01;25.52;96919.59;4833096;29;20050;-79
2023/05/31 12:18:22;;;;;;;4.75;1.63;;;;;;;24.06;24.90;96908.16;4838737;29;20058;-80
2023/05/31 12:20:50;;;;;;;3.88;1.58;;;;;;;24.06;24.58;96905.47;4839923;29;20083;-81
2023/05/31 12:23:19;;;;;;;2.83;1.45;;;;;;;24.03;23.43;96904.13;4846958;29;20567;-79
2023/05/31 12:25:50;;;;;;;4.63;2.10;;;;;;;23.95;23.54;96899.31;4839582;29;20444;-79
2023/05/31 12:28:18;;;;;;;2.65;1.38;;;;;;;23.94;24.30;96903.03;4824121;29;20138;-81
2023/05/31 12:30:47;;;;;;;5.13;1.40;;;;;;;23.95;24.89;96890.50;4824754;29;20054;-81
2023/05/31 12:33:15;;;;;;;4.32;1.58;;;;;;;23.97;25.25;96881.19;4841249;29;20057;-78
2023/05/31 12:35:45;;;;;;;4.35;1.50;;;;;;;24.03;25.68;96900.66;4843199;29;20461;-81
2023/05/31 12:38:13;;;;;;;3.38;1.52;;;;;;;24.09;25.08;96893.50;4839943;29;20137;-81
2023/05/31 12:40:44;;;;;;;4.10;1.45;;;;;;;24.10;24.30;96901.22;4848062;29;20060;-81
2023/05/31 12:43:15;;;;;;;2.35;1.48;;;;;;;24.11;25.04;96889.50;4862895;29;20074;-80
2023/05/31 12:45:43;;;;;;;5.10;1.70;;;;;;;24.11;25.74;96889.50;4861915;29;20064;-79
2023/05/31 12:48:11;;;;;;;2.08;1.17;;;;;;;24.11;24.91;96886.03;4837797;29;20069;-81
2023/05/31 12:50:46;;;;;;;2.25;1.40;;;;;;;24.09;24.43;96888.94;4845499;29;20056;-81
2023/05/31 12:53:15;;;;;;;4.72;1.58;;;;;;;24.09;24.30;96891.63;4844294;29;20057;-78
2023/05/31 12:55:45;;;;;;;4.20;1.35;;;;;;;24.11;24.07;96888.69;4827901;29;20110;-79
2023/05/31 12:58:14;;;;;;;2.67;1.55;;;;;;;24.10;24.63;96889.78;4840508;29;20429;-79
2023/05/31 13:00:44;;;;;;;2.10;1.00;;;;;;;24.13;25.03;96882.03;4843355;29;20090;-79
2023/05/31 13:03:13;;;;;;;2.10;1.42;;;;;;;24.15;24.87;96884.44;4845724;29;20050;-80
2023/05/31 13:05:42;;;;;;;4.03;1.90;;;;;;;24.14;25.29;96874.84;4845874;29;20459;-80
2023/05/31 13:08:10;;;;;;;4.85;1.88;;;;;;;24.14;25.91;96881.00;4843680;29;20072;-81
2023/05/31 13:10:37;;;;;;;1.80;1.30;;;;;;;24.16;25.22;96880.72;4842103;29;20085;-80
2023/05/31 13:13:05;;;;;;;5.60;2.17;;;;;;;24.18;24.67;96889.25;4841514;29;20136;-80
2023/05/31 13:15:34;;;;;;;4.05;1.63;;;;;;;24.18;25.21;96876.75;4842653;29;20128;-81
2023/05/31 13:18:02;;;;;;;4.65;1.35;;;;;;;24.19;25.02;96872.22;4841339;29;20138;-81
2023/05/31 13:20:30;;;;;;;7.57;2.33;;;;;;;24.20;25.21;96879.91;4840318;29;20050;-81
2023/05/31 13:22:58;;;;;;;2.97;1.88;;;;;;;24.21;24.90;96876.22;4840207;29;20423;-81
2023/05/31 13:25:26;;;;;;;3.15;1.80;;;;;;;24.18;25.43;96884.75;4842026;29;20111;-81
2023/05/31 13:27:54;;;;;;;5.53;1.83;;;;;;;24.17;25.83;96890.31;4842740;29;20411;-81
2023/05/31 13:30:21;;;;;;;4.47;1.63;;;;;;;24.17;25.30;96880.47;4844878;29;20058;-81
2023/05/31 13:32:50;;;;;;;3.42;1.63;;;;;;;24.16;24.77;96872.72;4843673;29;20058;-80
2023/05/31 13:35:18;;;;;;;7.65;1.73;;;;;;;24.13;25.35;96863.38;4843730;29;20110;-81
2023/05/31 13:37:46;;;;;;;2.92;1.40;;;;;;;24.14;25.62;96870.34;4843469;29;20053;-80
2023/05/31 13:40:13;;;;;;;7.32;1.55;;;;;;;24.16;25.70;96868.22;4843574;29;20107;-81
2023/05/31 13:42:41;;;;;;;3.55;1.52;;;;;;;24.16;25.32;96868.22;4844573;29;20106;-81
2023/05/31 13:45:10;;;;;;;2.88;1.20;;;;;;;24.15;25.34;96860.47;4845098;29;20179;-82
2023/05/31 13:47:38;;;;;;;4.82;1.48;;;;;;;24.16;25.42;96851.41;4845826;29;20065;-82
2023/05/31 13:50:07;;;;;;;8.55;1.83;;;;;;;24.18;25.52;96855.44;4845784;29;20345;-80
2023/05/31 13:52:35;;;;;;;5.03;1.98;;;;;;;24.19;26.09;96846.34;4849577;29;20083;-81
2023/05/31 13:55:03;;;;;;;5.30;1.77;;;;;;;24.20;25.94;96841.81;4850711;29;20083;-81
2023/05/31 13:57:31;;;;;;;6.85;1.92;;;;;;;24.19;25.47;96857.00;4848611;29;20083;-81
2023/05/31 13:59:58;;;;;;;4.00;2.05;;;;;;;24.16;25.35;96838.91;4849091;29;20054;-82
2023/05/31 14:02:28;;;;;;;4.18;1.30;;;;;;;24.16;25.96;96830.91;4848741;29;20110;-82
2023/05/31 14:04:56;;;;;;;4.95;1.52;;;;;;;24.18;25.54;96834.09;4847722;29;20053;-81
2023/05/31 14:07:25;;;;;;;5.20;1.80;;;;;;;24.22;25.81;96834.34;4847076;29;20545;-82
2023/05/31 14:09:53;;;;;;;4.97;1.83;;;;;;;24.25;25.46;96833.84;4847257;29;20069;-81
2023/05/31 14:12:21;;;;;;;5.40;1.63;;;;;;;24.29;26.04;96826.09;4847776;29;20476;-81
2023/05/31 14:14:48;;;;;;;4.13;1.60;;;;;;;24.31;25.31;96826.66;4847219;29;20057;-81
2023/05/31 14:17:16;;;;;;;5.22;1.58;;;;;;;24.33;25.50;96835.19;4847174;29;20053;-81
2023/05/31 14:19:44;;;;;;;3.30;2.13;;;;;;;24.34;25.56;96820.81;4847076;29;20305;-81
2023/05/31 14:22:11;;;;;;;4.43;1.75;;;;;;;24.34;25.66;96826.94;4846849;29;20058;-82
2023/05/31 14:24:40;;;;;;;4.68;2.00;;;;;;;24.36;25.26;96823.97;4846845;29;20061;-82
2023/05/31 14:27:08;;;;;;;5.05;2.08;;;;;;;24.36;25.13;96815.97;4847308;29;20054;-81
2023/05/31 14:29:35;;;;;;;4.05;1.77;;;;;;;24.35;25.98;96817.06;4846404;29;20053;-81
2023/05/31 14:32:03;;;;;;;6.28;1.52;;;;;;;24.34;25.23;96810.13;4845846;29;20107;-81
2023/05/31 14:34:31;;;;;;;4.82;1.77;;;;;;;24.33;25.31;96813.84;4846246;29;20089;-81
2023/05/31 14:36:59;;;;;;;2.92;1.50;;;;;;;24.30;25.12;96811.72;4845081;29;20054;-81
2023/05/31 14:39:27;;;;;;;5.13;1.70;;;;;;;24.25;25.23;96823.97;4844255;29;20484;-81
2023/05/31 14:41:56;;;;;;;3.63;1.98;;;;;;;24.23;25.18;96820.78;4844511;29;20058;-80
2023/05/31 14:44:24;;;;;;;4.32;1.40;;;;;;;24.19;24.69;96817.03;4844629;29;20092;-81
2023/05/31 14:46:52;;;;;;;7.05;1.80;;;;;;;24.17;25.47;96805.84;4844088;29;20050;-81
2023/05/31 14:49:20;;;;;;;6.50;1.92;;;;;;;24.16;25.26;96817.56;4844234;29;20137;-81
2023/05/31 14:51:48;;;;;;;4.05;1.85;;;;;;;24.16;25.60;96801.59;4844232;29;20096;-81
2023/05/31 14:54:15;;;;;;;6.88;1.55;;;;;;;24.16;25.75;96804.25;4843891;29;20479;-81
2023/05/31 14:56:44;;;;;;;5.82;2.28;;;;;;;24.18;25.84;96803.97;4844160;29;20053;-81
2023/05/31 14:59:13;;;;;;;2.83;1.70;;;;;;;24.20;25.96;96809.84;4844110;29;20085;-81
2023/05/31 15:01:42;;;;;;;7.80;1.98;;;;;;;24.20;25.60;96809.84;4844338;29;20054;-81
2023/05/31 15:04:10;;;;;;;5.85;1.70;;;;;;;24.19;25.68;96811.69;4844302;29;20522;-80
2023/05/31 15:06:40;;;;;;;6.47;1.67;;;;;;;24.20;25.75;96817.81;4844028;29;20054;-79
2023/05/31 15:09:08;;;;;;;3.85;1.95;;;;;;;24.19;25.11;96819.69;4844299;29;20114;-79
2023/05/31 15:11:36;;;;;;;3.65;1.90;;;;;;;24.16;25.48;96809.56;4844298;29;20053;-79
2023/05/31 15:14:04;;;;;;;1.67;1.42;;;;;;;24.17;26.34;96811.16;4844249;29;20063;-81
2023/05/31 15:16:37;;;;;;;7.18;1.60;;;;;;;24.17;25.56;96811.16;4844108;29;20141;-80
2023/05/31 15:19:05;;;;;;;3.42;1.67;;;;;;;24.15;25.28;96810.63;4843793;29;20464;-80
2023/05/31 15:21:32;;;;;;;5.10;1.85;;;;;;;24.14;25.58;96801.03;4843576;29;20058;-79
2023/05/31 15:24:00;;;;;;;4.00;1.90;;;;;;;24.15;25.42;96801.84;4843746;29;20096;-80
2023/05/31 15:26:28;;;;;;;6.57;2.03;;;;;;;24.15;25.82;96799.97;4843457;29;20091;-79
2023/05/31 15:28:55;;;;;;;3.20;1.85;;;;;;;24.18;25.93;96812.78;4844011;29;20058;-80
2023/05/31 15:31:23;;;;;;;2.53;1.85;;;;;;;24.21;25.68;96812.25;4843359;29;20539;-80
2023/05/31 15:33:52;;;;;;;3.80;1.70;;;;;;;24.24;25.55;96816.25;4843596;29;20445;-81
2023/05/31 15:36:20;;;;;;;4.18;1.63;;;;;;;24.24;25.54;96806.38;4843363;29;20062;-81
2023/05/31 15:38:49;;;;;;;2.53;1.90;;;;;;;24.22;25.68;96807.69;4843369;29;20061;-79
2023/05/31 15:41:17;;;;;;;9.10;2.28;;;;;;;24.21;25.77;96809.56;4843356;29;20079;-80
2023/05/31 15:43:44;;;;;;;3.20;1.95;;;;;;;24.20;25.02;96815.16;4843737;29;20488;-80
2023/05/31 15:46:12;;;;;;;3.67;1.55;;;;;;;24.17;24.79;96800.50;4843220;29;20058;-80
2023/05/31 15:48:39;;;;;;;6.25;1.80;;;;;;;24.15;24.99;96807.16;4844363;29;20107;-81
2023/05/31 15:51:09;;;;;;;5.78;1.50;;;;;;;24.12;24.74;96808.50;4844433;29;20053;-80
2023/05/31 15:53:36;;;;;;;7.22;2.03;;;;;;;24.10;25.17;96802.63;4844200;29;20106;-81
2023/05/31 15:56:04;;;;;;;3.58;1.75;;;;;;;24.10;25.49;96799.97;4844285;29;20077;-80
2023/05/31 15:58:32;;;;;;;2.92;1.77;;;;;;;24.10;25.23;96805.28;4843990;29;20102;-81
2023/05/31 16:00:59;;;;;;;4.65;1.77;;;;;;;24.11;25.68;96798.88;4843634;29;20111;-80
2023/05/31 16:03:28;;;;;;;2.67;1.65;;;;;;;24.12;25.42;96792.50;4844462;29;20141;-80
2023/05/31 16:05:56;;;;;;;6.07;2.10;;;;;;;24.14;25.46;96800.22;4843728;29;20464;-80
2023/05/31 16:08:25;;;;;;;2.95;1.60;;;;;;;24.14;25.48;96797.56;4843530;29;20594;-80
2023/05/31 16:10:53;;;;;;;9.13;1.92;;;;;;;24.12;26.09;96792.50;4843954;29;20054;-80
2023/05/31 16:13:20;;;;;;;4.75;1.95;;;;;;;24.12;25.74;96800.50;4843937;29;20426;-79
2023/05/31 16:15:48;;;;;;;3.63;1.95;;;;;;;24.12;25.87;96792.50;4843799;29;20053;-81
2023/05/31 16:18:16;;;;;;;3.83;1.80;;;;;;;24.10;25.85;96783.97;4844016;29;20057;-80
2023/05/31 16:20:43;;;;;;;4.60;1.90;;;;;;;24.10;26.17;96783.97;4843363;29;20057;-82
2023/05/31 16:23:11;;;;;;;3.63;1.67;;;;;;;24.09;26.47;96776.22;4844830;29;20062;-80
2023/05/31 16:25:40;;;;;;;4.03;1.88;;;;;;;24.09;26.39;96776.22;4843376;29;20106;-80
2023/05/31 16:28:07;;;;;;;4.35;1.52;;;;;;;24.08;26.59;96778.09;4843609;29;20078;-82
2023/05/31 16:30:35;;;;;;;4.60;1.98;;;;;;;24.07;26.24;96773.81;4843458;29;20237;-81
2023/05/31 16:33:03;;;;;;;6.88;1.90;;;;;;;24.06;26.41;96777.56;4843249;29;20136;-82
2023/05/31 16:35:30;;;;;;;8.07;1.73;;;;;;;24.04;26.31;96777.81;4843206;29;20058;-80
2023/05/31 16:37:58;;;;;;;5.50;2.15;;;;;;;24.03;26.18;96778.91;4843017;29;20426;-80
2023/05/31 16:40:26;;;;;;;4.18;1.90;;;;;;;23.98;26.69;96773.53;4843140;29;20085;-79
2023/05/31 16:42:55;;;;;;;7.03;2.25;;;;;;;23.98;27.15;96773.53;4842860;29;20490;-80
2023/05/31 16:45:23;;;;;;;5.07;2.42;;;;;;;23.96;26.63;96773.00;4842416;29;20057;-81
2023/05/31 16:47:51;;;;;;;4.80;1.70;;;;;;;23.93;27.13;96772.75;4842226;29;20062;-80
2023/05/31 16:50:19;;;;;;;4.97;3.17;;;;;;;23.88;27.01;96776.19;4846346;29;20527;-80
2023/05/31 16:52:51;;;;;;;4.68;2.22;;;;;;;23.87;27.04;96768.47;4860220;29;20054;-81
2023/05/31 16:55:19;;;;;;;;;;;;;;;23.84;27.40;96769.78;4865555;29;20042;-81
2023/05/31 16:57:47;;;;;;;6.13;2.47;;;;;;;23.81;27.49;96765.78;4865106;29;19940;-80
2023/05/31 17:00:17;;;;;;;4.40;2.22;;;;;;;23.81;27.75;96764.97;4858898;29;20058;-79
2023/05/31 17:02:45;;;;;;;5.50;2.22;;;;;;;23.81;27.84;96764.97;4858025;29;20053;-81
2023/05/31 17:05:13;;;;;;;3.15;1.90;;;;;;;23.79;27.97;96767.91;4859813;29;20037;-81
2023/05/31 17:07:41;;;;;;;5.55;2.30;;;;;;;23.78;27.78;96760.97;4859037;29;20069;-81
2023/05/31 17:10:09;;;;;;;5.43;2.30;;;;;;;23.77;28.27;96759.38;4851938;29;20511;-80
2023/05/31 17:12:37;;;;;;;3.58;2.08;;;;;;;23.77;27.98;96759.38;4845253;29;20054;-80
2023/05/31 17:15:06;;;;;;;3.80;2.25;;;;;;;23.76;28.06;96755.09;4846033;29;20069;-81
2023/05/31 17:17:35;;;;;;;4.53;2.10;;;;;;;23.75;28.18;96769.50;4844461;29;20082;-79
2023/05/31 17:20:04;;;;;;;5.85;2.30;;;;;;;23.74;28.30;96765.19;4844377;29;20088;-82
2023/05/31 17:22:32;;;;;;;5.32;2.10;;;;;;;23.73;28.75;96768.94;4843822;29;20546;-80
2023/05/31 17:25:00;;;;;;;3.45;2.45;;;;;;;23.74;28.92;96765.19;4859032;29;20065;-80
2023/05/31 17:27:27;;;;;;;6.68;2.38;;;;;;;23.75;28.34;96763.34;4861660;29;20118;-80
2023/05/31 17:29:55;;;;;;;4.78;2.30;;;;;;;23.71;28.34;96760.41;4858549;29;20050;-80
2023/05/31 17:32:22;;;;;;;4.20;2.10;;;;;;;23.68;28.32;96755.59;4842300;29;20089;-82
2023/05/31 17:34:51;;;;;;;3.15;2.17;;;;;;;23.68;28.91;96760.09;4846247;29;20118;-81
2023/05/31 17:37:19;;;;;;;8.13;3.10;;;;;;;23.67;28.94;96769.19;4846380;29;20057;-80
2023/05/31 17:39:47;;;;;;;4.30;2.85;;;;;;;23.65;28.70;96761.44;4846130;29;20581;-80
2023/05/31 17:42:14;;;;;;;5.53;2.55;;;;;;;23.64;28.81;96759.84;4845978;29;20058;-80
2023/05/31 17:44:42;;;;;;;3.03;2.38;;;;;;;23.62;28.84;96756.66;4845883;29;20511;-79
2023/05/31 17:47:09;;;;;;;7.75;2.33;;;;;;;23.58;29.14;96756.34;4846570;29;20112;-80
2023/05/31 17:49:37;;;;;;;4.78;2.35;;;;;;;23.57;29.58;96759.28;4846628;29;20099;-80
2023/05/31 17:52:07;;;;;;;2.97;2.13;;;;;;;23.54;29.20;96749.94;4845988;29;20089;-81
2023/05/31 17:54:35;;;;;;;3.70;2.33;;;;;;;23.52;29.43;96761.94;4846344;29;20492;-80
2023/05/31 17:57:03;;;;;;;6.38;2.60;;;;;;;23.48;29.31;96756.31;4846365;29;20070;-81
2023/05/31 17:59:32;;;;;;;5.70;2.20;;;;;;;23.45;29.33;96756.84;4846568;29;20491;-81
2023/05/31 18:01:59;;;;;;;4.18;2.45;;;;;;;23.41;29.73;96761.88;4846185;29;20472;-81
2023/05/31 18:04:27;;;;;;;6.70;2.33;;;;;;;23.36;30.03;96761.88;4845718;29;20054;-79